Cape Girardeau, MO

3:47 AM CDT on August 28, 2014 (GMT -0500)
Timber Creek | Change Station
CLOSE
Current Station
Personal Weather Station
Location: Cape Girardeau, MO
Elevation: 440 ft
Nearby Weather Stations

Elev 440 ft 37.34 °N, 89.54 °W | Updated 1 minute ago

Partly Cloudy
Partly Cloudy
74.6 °F
Feels Like 74 °F
N
0.0
Wind Variable Wind from ENE
Gusts 0.0 mph

Today
High -- | Low -- °F
--% Chance of Precip.
Yesterday
High -- | Low -- °F
Precip. -- in
6:25 AM 7:32 PM
Waxing Crescent, 7% visible
Pressure 30.02 in
Visibility 7.0 miles
Clouds Clear
Heat Index 74 °F
Dew Point 71 °F
Humidity 89%
Rainfall 0.00 in
Snow Depth Not available.
UV 0.0 out of 12
Pollen 10.60 out of 12
Air Quality Not available.
Flu Activity Not available.
METAR KCGI 280753Z AUTO 00000KT 7SM CLR 23/22 A3003 RMK AO2 SLP164 T02330222

More Conditions Fewer Conditions

Pressure 30.02 in
Visibility 7.0 miles
Clouds Clear
Heat Index 74 °F
Dew Point 71 °F
Humidity 89%
Rainfall 0.00 in
Snow Depth Not available.
UV 0.0 out of 12
Pollen 10.60 out of 12
Air Quality Not available.
Flu Activity Not available.
METAR KCGI 280753Z AUTO 00000KT 7SM CLR 23/22 A3003 RMK AO2 SLP164 T02330222

More Conditions Fewer Conditions

10-Day Weather Forecast

Almanac

Astronomy

Aug. 28, 2014 Rise Set
Actual Time 6:25 AM CDT 7:32 PM CDT
Civil Twilight 5:58 AM CDT 7:59 PM CDT
Nautical Twilight 5:26 AM CDT 8:31 PM CDT
Astronomical Twilight 4:53 AM CDT 9:04 PM CDT
Moon 9:13 AM CDT 9:01 PM CDT
Length of Visible Light 14h 01m
Length of Day
13h 07m
Tomorrow will be 2m 15s shorter.
Waxing Crescent, 7% of the Moon is Illuminated
Today
Waxing Crescent
Sep 2
First Quarter
Sep 8
Full
Sep 15
Last Quarter
Sep 24
New

Today's Extremes

State Highs State Lows

Community

WunderPhotos

Upload Photos

1,747,918 photos uploaded!

Nearby

Snow Depth

Station Depth Elevation
No new snow has been reported.

Earthquake Activity

City Distance Mag. Time & Date
No recent earthquake activity has been reported nearby.
Minimum magnitude displayed is 2.5.

Coastal Water Temperatures

Place Temperature
No Stations Reporting

Nearby Weather Stations